Time;durP1;ratioP1;P1;durP2;ratioP2;P2;SDS_P1;SDS_P2;PMS_P1;PMS_P2;Temp;Humidity;BMP_temperature;BMP_pressure;BME280_temperature;BME280_humidity;BME280_pressure;Samples;Min_cycle;Max_cycle;Signal;HPM_P1;HPM_P2
2023/09/12 00:00:00;;;;;;;15.27;11.93;;;;;;;22.24;62.33;92623.59;2050729;70;20602;-76
2023/09/12 00:02:26;;;;;;;18.38;11.65;;;;;;;22.14;62.84;92620.56;2047425;70;20190;-77
2023/09/12 00:04:52;;;;;;;15.30;12.27;;;;;;;22.24;61.99;92618.59;2050982;70;20520;-77
2023/09/12 00:07:18;;;;;;;15.52;11.50;;;;;;;22.41;61.53;92624.59;2050708;70;20170;-76
2023/09/12 00:09:44;;;;;;;15.70;12.10;;;;;;;21.85;63.69;92628.63;2047192;70;20141;-74
2023/09/12 00:12:14;;;;;;;17.48;11.75;;;;;;;22.13;62.91;92624.84;2050908;70;20170;-75
2023/09/12 00:14:40;;;;;;;14.88;11.77;;;;;;;22.18;61.46;92624.22;2050867;70;20154;-76
2023/09/12 00:17:09;;;;;;;15.50;12.77;;;;;;;21.93;63.19;92619.47;2051296;70;20142;-75
2023/09/12 00:19:38;;;;;;;16.08;12.13;;;;;;;22.01;62.73;92631.06;2051143;70;20229;-76
2023/09/12 00:22:05;;;;;;;17.80;12.55;;;;;;;21.94;62.45;92623.78;2051230;70;20591;-75
2023/09/12 00:24:31;;;;;;;14.98;11.82;;;;;;;21.93;63.00;92623.06;2054553;70;20153;-75
2023/09/12 00:27:00;;;;;;;15.40;11.93;;;;;;;21.78;63.94;92615.63;2051630;70;20256;-76
2023/09/12 00:29:26;;;;;;;16.80;12.13;;;;;;;21.83;62.72;92614.28;2054837;69;20181;-76
2023/09/12 00:31:56;;;;;;;14.88;12.55;;;;;;;21.94;62.34;92612.31;2051841;70;20161;-77
2023/09/12 00:34:23;;;;;;;16.13;12.27;;;;;;;22.08;62.05;92624.00;2051861;70;20170;-77
2023/09/12 00:36:51;;;;;;;15.60;12.57;;;;;;;22.01;62.08;92617.47;2054888;70;20610;-76
2023/09/12 00:39:21;;;;;;;13.98;12.45;;;;;;;21.92;61.91;92618.03;2054956;70;20260;-77
2023/09/12 00:41:47;;;;;;;15.20;12.35;;;;;;;21.90;61.94;92618.72;2055062;70;20177;-77
2023/09/12 00:44:13;;;;;;;14.18;11.88;;;;;;;21.94;61.80;92615.19;2051478;70;20157;-77
2023/09/12 00:46:40;;;;;;;15.82;12.10;;;;;;;21.94;62.14;92610.16;2054743;70;20142;-77
2023/09/12 00:49:12;;;;;;;15.70;12.65;;;;;;;21.71;63.26;92609.06;2051764;70;20177;-77
2023/09/12 00:51:40;;;;;;;16.52;12.02;;;;;;;21.82;61.94;92610.69;2055073;70;20142;-76
2023/09/12 00:54:06;;;;;;;14.95;12.13;;;;;;;21.82;62.57;92607.84;2051569;70;20182;-76
2023/09/12 00:56:33;;;;;;;15.82;12.60;;;;;;;21.71;63.70;92605.47;2054844;70;20229;-75
2023/09/12 00:59:00;;;;;;;16.50;12.40;;;;;;;21.80;61.53;92610.66;2054723;70;20240;-75
2023/09/12 01:01:26;;;;;;;14.73;12.95;;;;;;;21.87;62.14;92605.75;2051416;70;20157;-76
2023/09/12 01:03:57;;;;;;;17.02;12.48;;;;;;;21.76;62.61;92609.84;2054721;69;20146;-77
2023/09/12 01:06:28;;;;;;;16.45;12.90;;;;;;;21.70;62.95;92609.75;2054788;70;20237;-76
2023/09/12 01:09:04;;;;;;;19.45;12.90;;;;;;;21.71;63.19;92611.91;2053076;70;20261;-76
2023/09/12 01:11:31;;;;;;;17.63;12.43;;;;;;;21.73;61.37;92609.09;2046335;70;20157;-76
2023/09/12 01:13:57;;;;;;;17.80;13.82;;;;;;;21.69;62.69;92605.44;2051805;70;20146;-77
2023/09/12 01:16:24;;;;;;;17.20;13.48;;;;;;;21.65;62.50;92608.94;2054403;70;20205;-76
2023/09/12 01:18:51;;;;;;;17.30;13.15;;;;;;;21.53;63.44;92611.59;2051362;70;20177;-77
2023/09/12 01:21:38;;;;;;;16.75;12.82;;;;;;;21.65;63.13;92611.09;2054996;70;20609;-77
2023/09/12 01:24:19;;;;;;;18.33;13.23;;;;;;;21.53;63.71;92618.06;2051710;70;20654;-76
2023/09/12 01:27:06;;;;;;;14.07;12.32;;;;;;;21.54;63.70;92610.91;2051696;70;20186;-75
2023/09/12 01:29:33;;;;;;;15.13;11.95;;;;;;;21.69;61.24;92619.75;2051796;70;20243;-76
2023/09/12 01:32:01;;;;;;;14.15;11.82;;;;;;;21.71;62.11;92614.06;2054884;70;20142;-77
2023/09/12 01:34:27;;;;;;;16.67;12.80;;;;;;;21.64;63.12;92615.38;2051538;70;20146;-75
2023/09/12 01:36:53;;;;;;;16.50;12.60;;;;;;;21.62;63.28;92616.03;2051300;70;20185;-77
2023/09/12 01:39:20;;;;;;;16.75;12.50;;;;;;;21.70;62.96;92618.34;2055008;70;20517;-76
2023/09/12 01:41:47;;;;;;;15.07;12.15;;;;;;;21.46;63.34;92612.91;2054990;70;20216;-76
2023/09/12 01:44:14;;;;;;;16.35;12.73;;;;;;;21.42;64.30;92630.00;2051371;70;20271;-76
2023/09/12 01:46:43;;;;;;;14.25;12.63;;;;;;;21.50;63.52;92618.72;2054934;70;20173;-76
2023/09/12 01:49:10;;;;;;;15.02;12.25;;;;;;;21.44;62.95;92619.31;2048680;70;20529;-76
2023/09/12 01:51:37;;;;;;;14.40;12.85;;;;;;;21.41;63.54;92614.97;2051492;70;20150;-75
2023/09/12 01:54:07;;;;;;;13.60;11.68;;;;;;;21.43;63.16;92625.72;2054702;70;20236;-77
2023/09/12 01:56:33;;;;;;;15.32;12.35;;;;;;;21.35;63.47;92616.97;2049025;70;20232;-77
2023/09/12 01:59:02;;;;;;;17.70;12.73;;;;;;;21.27;63.08;92620.38;2054705;70;20634;-77
2023/09/12 02:01:28;;;;;;;15.30;12.48;;;;;;;21.34;62.95;92621.97;2048915;70;20146;-77
2023/09/12 02:03:57;;;;;;;17.20;13.30;;;;;;;21.22;63.06;92627.44;2051241;70;20215;-76
2023/09/12 02:06:23;;;;;;;17.63;12.63;;;;;;;21.26;63.68;92631.09;2051560;70;20165;-76
2023/09/12 02:08:49;;;;;;;17.15;11.95;;;;;;;21.26;64.10;92621.81;2044855;70;20545;-76
2023/09/12 02:11:15;;;;;;;19.05;12.77;;;;;;;21.23;64.23;92626.75;2044543;70;20619;-77
2023/09/12 02:13:41;;;;;;;16.95;12.10;;;;;;;21.34;62.40;92627.69;2044370;70;20178;-76
2023/09/12 02:16:07;;;;;;;14.25;12.25;;;;;;;21.15;63.72;92625.84;2044437;70;20154;-76
2023/09/12 02:18:33;;;;;;;15.70;12.40;;;;;;;21.19;63.48;92629.53;2044576;70;20603;-76
2023/09/12 02:20:59;;;;;;;15.95;12.65;;;;;;;21.33;63.27;92623.38;2047714;70;20611;-77
2023/09/12 02:23:25;;;;;;;16.65;12.90;;;;;;;21.35;63.05;92631.28;2048624;70;20538;-78
2023/09/12 02:25:52;;;;;;;16.15;12.60;;;;;;;21.40;62.24;92622.09;2047519;70;20154;-77
2023/09/12 02:28:19;;;;;;;17.52;11.82;;;;;;;21.46;62.83;92618.63;2050876;70;20150;-79
2023/09/12 02:30:46;;;;;;;16.15;12.15;;;;;;;21.35;62.81;92616.97;2051036;70;20254;-76
2023/09/12 02:33:11;;;;;;;13.65;12.00;;;;;;;21.36;63.24;92613.44;2051029;70;20150;-76
2023/09/12 02:35:38;;;;;;;16.30;12.38;;;;;;;21.38;62.77;92622.03;2050903;70;20146;-76
2023/09/12 02:38:04;;;;;;;13.00;11.40;;;;;;;21.44;61.44;92621.44;2047743;70;20198;-76
2023/09/12 02:40:30;;;;;;;14.85;12.25;;;;;;;21.45;61.97;92622.91;2047415;70;20626;-76
2023/09/12 02:42:56;;;;;;;15.07;11.77;;;;;;;21.36;62.62;92629.88;2050071;70;20156;-76
2023/09/12 02:45:22;;;;;;;15.30;12.85;;;;;;;21.17;63.52;92637.34;2047703;70;20545;-76
2023/09/12 02:47:47;;;;;;;15.18;12.48;;;;;;;21.20;63.21;92645.28;2050985;70;20246;-79
2023/09/12 02:50:13;;;;;;;17.85;13.07;;;;;;;21.19;62.71;92638.13;2047617;70;20550;-79
2023/09/12 02:52:39;;;;;;;15.27;12.40;;;;;;;21.16;63.23;92639.47;2047696;70;20134;-77
2023/09/12 02:55:05;;;;;;;17.88;12.35;;;;;;;20.81;64.73;92632.31;2044953;70;20169;-77
2023/09/12 02:57:31;;;;;;;16.33;12.10;;;;;;;21.04;62.19;92634.25;2047762;70;20238;-78
2023/09/12 02:59:57;;;;;;;14.95;12.43;;;;;;;21.05;62.71;92627.09;2044934;70;20272;-77
2023/09/12 03:02:22;;;;;;;14.70;12.65;;;;;;;21.07;63.59;92626.41;2050589;70;20182;-77
2023/09/12 03:04:52;;;;;;;15.73;12.77;;;;;;;21.03;64.27;92627.06;2047543;70;20157;-77
2023/09/12 03:07:19;;;;;;;16.17;13.07;;;;;;;21.00;64.48;92625.56;2051673;70;20149;-78
2023/09/12 03:09:48;;;;;;;15.32;12.85;;;;;;;21.00;64.38;92624.84;2050735;70;20142;-77
2023/09/12 03:12:14;;;;;;;14.38;12.77;;;;;;;20.86;63.85;92618.81;2050597;70;20169;-77
2023/09/12 03:14:42;;;;;;;17.58;12.82;;;;;;;20.86;63.75;92619.53;2050756;70;20178;-78
2023/09/12 03:17:10;;;;;;;16.50;12.68;;;;;;;20.87;63.24;92626.00;2054044;70;20606;-77
2023/09/12 03:19:46;;;;;;;14.75;12.77;;;;;;;20.87;63.75;92617.41;2054403;70;20153;-77
2023/09/12 03:22:16;;;;;;;14.55;12.30;;;;;;;20.66;64.93;92613.38;2050911;70;20152;-77
2023/09/12 03:24:41;;;;;;;15.05;12.52;;;;;;;20.76;63.97;92622.91;2050552;70;20637;-77
2023/09/12 03:27:07;;;;;;;14.57;12.43;;;;;;;20.80;64.31;92622.25;2050624;70;20149;-77
2023/09/12 03:29:37;;;;;;;20.45;12.32;;;;;;;20.91;61.91;92631.81;2050855;70;20170;-77
2023/09/12 03:32:06;;;;;;;14.45;12.13;;;;;;;20.59;64.50;92643.25;2050624;70;20176;-77
2023/09/12 03:34:32;;;;;;;16.25;12.48;;;;;;;20.60;64.70;92631.13;2047683;70;20538;-77
2023/09/12 03:37:00;;;;;;;16.42;12.15;;;;;;;20.59;64.64;92638.25;2053811;70;20172;-78
2023/09/12 03:39:25;;;;;;;17.85;12.07;;;;;;;20.51;65.23;92635.22;2050463;70;20154;-78
2023/09/12 03:41:51;;;;;;;14.88;12.52;;;;;;;20.51;65.37;92630.22;2050583;70;20172;-78
2023/09/12 03:44:18;;;;;;;14.27;12.13;;;;;;;20.50;64.98;92630.91;2050471;70;20244;-78
2023/09/12 03:46:44;;;;;;;13.38;11.98;;;;;;;20.45;65.25;92620.75;2050727;70;20233;-77
2023/09/12 03:49:10;;;;;;;14.90;12.30;;;;;;;20.52;65.08;92631.66;2050538;70;20264;-78
2023/09/12 03:51:37;;;;;;;15.20;12.25;;;;;;;20.64;63.93;92625.50;2050398;70;20142;-78
2023/09/12 03:54:03;;;;;;;15.27;12.15;;;;;;;20.65;63.56;92617.66;2050568;70;20664;-77
2023/09/12 03:56:31;;;;;;;17.88;13.32;;;;;;;20.14;66.05;92631.47;2050581;70;20622;-77
2023/09/12 03:58:58;;;;;;;15.95;12.63;;;;;;;20.30;64.97;92629.00;2050407;70;20157;-77
2023/09/12 04:01:24;;;;;;;17.63;13.02;;;;;;;20.31;65.38;92639.03;2047905;70;20146;-78
2023/09/12 04:03:50;;;;;;;15.60;13.27;;;;;;;20.36;64.52;92631.28;2050354;70;20223;-76
2023/09/12 04:06:16;;;;;;;14.32;12.82;;;;;;;20.19;65.97;92638.72;2050701;70;20527;-80
2023/09/12 04:08:43;;;;;;;15.93;13.23;;;;;;;20.20;65.79;92639.44;2050895;70;20625;-78
2023/09/12 04:11:11;;;;;;;14.75;12.48;;;;;;;20.28;65.42;92636.78;2054287;70;20633;-78
2023/09/12 04:13:36;;;;;;;17.13;12.50;;;;;;;20.21;65.72;92627.38;2051237;70;20154;-78
2023/09/12 04:16:02;;;;;;;14.82;12.80;;;;;;;20.22;65.83;92633.81;2051236;70;20517;-77
2023/09/12 04:18:28;;;;;;;17.15;12.95;;;;;;;20.20;66.12;92633.72;2054140;70;20150;-78
2023/09/12 04:20:57;;;;;;;15.50;12.27;;;;;;;20.24;64.80;92623.13;2048448;70;20185;-77
2023/09/12 04:23:24;;;;;;;18.00;13.07;;;;;;;19.88;66.78;92625.09;2051163;70;20149;-78
2023/09/12 04:25:50;;;;;;;15.07;12.63;;;;;;;20.13;65.52;92635.00;2051189;70;20598;-77
2023/09/12 04:28:16;;;;;;;16.77;13.32;;;;;;;20.17;64.85;92627.25;2054612;70;20157;-79
2023/09/12 04:30:41;;;;;;;15.00;12.50;;;;;;;20.08;66.03;92619.91;2048446;70;20146;-78
2023/09/12 04:33:07;;;;;;;16.83;12.00;;;;;;;20.15;65.46;92632.19;2051028;70;20149;-78
2023/09/12 04:35:34;;;;;;;15.45;12.40;;;;;;;20.08;65.83;92622.75;2051191;70;20672;-77
2023/09/12 04:38:00;;;;;;;18.33;11.95;;;;;;;20.22;65.23;92625.94;2051136;70;20232;-78
2023/09/12 04:40:25;;;;;;;15.13;12.10;;;;;;;20.20;64.57;92634.47;2051139;70;20570;-77
2023/09/12 04:42:51;;;;;;;14.55;11.93;;;;;;;20.01;65.32;92644.72;2051118;70;20620;-77
2023/09/12 04:45:17;;;;;;;21.42;12.85;;;;;;;19.94;66.09;92633.84;2051101;70;20142;-77
2023/09/12 04:47:44;;;;;;;15.95;12.77;;;;;;;19.88;66.20;92637.25;2048026;70;20498;-78
2023/09/12 04:50:11;;;;;;;16.35;12.32;;;;;;;19.95;65.85;92641.00;2050835;70;20600;-77
2023/09/12 04:52:38;;;;;;;17.23;12.50;;;;;;;19.96;65.49;92643.16;2050869;70;20518;-77
2023/09/12 04:55:04;;;;;;;14.52;12.27;;;;;;;19.83;66.35;92641.41;2049116;70;20150;-78
2023/09/12 04:57:30;;;;;;;16.88;12.43;;;;;;;19.92;64.93;92640.22;2051154;70;20157;-77
2023/09/12 04:59:58;;;;;;;15.15;11.90;;;;;;;19.86;65.96;92640.06;2050926;70;20188;-79
2023/09/12 05:02:25;;;;;;;18.02;13.13;;;;;;;19.87;65.84;92655.06;2054078;70;20518;-78
2023/09/12 05:04:52;;;;;;;19.05;13.27;;;;;;;19.89;65.61;92649.41;2050788;70;20693;-78
2023/09/12 05:07:18;;;;;;;21.80;13.95;;;;;;;19.90;65.48;92643.03;2050852;70;20173;-78
2023/09/12 05:09:43;;;;;;;17.98;13.05;;;;;;;19.91;65.76;92652.31;2051032;70;20170;-78
2023/09/12 05:12:09;;;;;;;18.42;13.23;;;;;;;19.87;65.75;92652.94;2051137;70;20153;-78
2023/09/12 05:14:35;;;;;;;19.95;13.00;;;;;;;19.81;65.51;92638.50;2051593;70;20569;-80
2023/09/12 05:17:01;;;;;;;19.33;12.60;;;;;;;19.91;65.86;92660.88;2051515;70;20176;-78
2023/09/12 05:19:31;;;;;;;15.75;11.88;;;;;;;20.00;64.81;92660.41;2051520;70;20150;-79
2023/09/12 05:21:57;;;;;;;20.10;14.57;;;;;;;20.06;64.44;92659.84;2051419;70;20162;-79
2023/09/12 05:24:22;;;;;;;23.50;16.58;;;;;;;19.94;64.88;92671.69;2051396;70;20265;-77
2023/09/12 05:26:49;;;;;;;21.90;15.93;;;;;;;19.92;65.16;92668.78;2051573;70;20142;-78
2023/09/12 05:29:15;;;;;;;18.52;12.77;;;;;;;19.76;66.23;92669.09;2051454;70;20153;-79
2023/09/12 05:31:41;;;;;;;15.50;12.18;;;;;;;19.87;65.56;92669.34;2051453;70;20134;-79
2023/09/12 05:34:09;;;;;;;18.23;13.10;;;;;;;19.78;64.77;92671.25;2054764;70;20153;-79
2023/09/12 05:36:35;;;;;;;16.65;11.82;;;;;;;19.97;64.77;92678.19;2051569;70;20138;-79
2023/09/12 05:39:01;;;;;;;16.35;12.00;;;;;;;20.11;63.76;92677.81;2051594;70;20154;-79
2023/09/12 05:41:27;;;;;;;15.90;11.52;;;;;;;19.95;64.11;92672.41;2051494;70;20146;-80
2023/09/12 05:43:52;;;;;;;16.50;11.75;;;;;;;20.16;63.62;92676.50;2054722;70;20141;-79
2023/09/12 05:46:18;;;;;;;20.20;14.00;;;;;;;19.76;65.36;92677.66;2048780;70;20146;-79
2023/09/12 05:48:45;;;;;;;18.25;12.85;;;;;;;19.99;65.08;92676.09;2051382;70;20181;-79
2023/09/12 05:51:12;;;;;;;16.42;12.20;;;;;;;20.09;65.34;92678.50;2051461;70;20149;-80
2023/09/12 05:53:37;;;;;;;17.13;12.15;;;;;;;20.14;64.97;92671.47;2051371;70;20146;-80
2023/09/12 05:56:03;;;;;;;14.48;11.95;;;;;;;19.99;65.13;92672.53;2051710;70;20141;-79
2023/09/12 05:58:29;;;;;;;17.00;12.18;;;;;;;20.15;65.08;92672.19;2054862;70;20231;-79
2023/09/12 06:00:55;;;;;;;17.98;12.55;;;;;;;20.29;63.93;92684.69;2051404;70;20204;-77
2023/09/12 06:03:23;;;;;;;13.15;11.63;;;;;;;20.22;63.38;92676.66;2051334;70;20201;-78
2023/09/12 06:05:50;;;;;;;17.65;12.10;;;;;;;20.27;62.97;92678.94;2054696;70;20606;-80
2023/09/12 06:08:16;;;;;;;13.70;10.75;;;;;;;20.26;61.88;92682.50;2051268;70;20177;-79
2023/09/12 06:10:41;;;;;;;14.75;11.45;;;;;;;20.31;63.22;92679.03;2054769;70;20585;-80
2023/09/12 06:13:07;;;;;;;15.02;11.60;;;;;;;20.37;62.96;92681.31;2054824;70;20158;-81
2023/09/12 06:15:33;;;;;;;19.27;12.02;;;;;;;20.32;63.88;92679.78;2054822;70;20198;-80
2023/09/12 06:17:58;;;;;;;17.67;11.30;;;;;;;20.29;64.10;92675.41;2048579;70;20145;-80
2023/09/12 06:20:24;;;;;;;15.70;11.43;;;;;;;20.39;60.70;92677.78;2054896;70;20150;-80
2023/09/12 06:22:51;;;;;;;18.67;11.82;;;;;;;20.28;62.77;92685.38;2054717;70;20225;-80
2023/09/12 06:25:17;;;;;;;17.20;11.80;;;;;;;20.41;62.30;92683.56;2051342;70;20154;-79
2023/09/12 06:27:42;;;;;;;14.80;11.90;;;;;;;20.27;62.72;92672.50;2054847;70;20153;-77
2023/09/12 06:30:11;;;;;;;19.40;11.52;;;;;;;19.93;64.50;92680.94;2054862;70;20675;-80
2023/09/12 06:32:40;;;;;;;14.85;11.32;;;;;;;20.35;63.61;92675.56;2054560;70;20188;-83
2023/09/12 06:35:10;;;;;;;15.43;11.43;;;;;;;20.51;64.32;92681.69;2051437;70;20153;-78
2023/09/12 06:37:39;;;;;;;13.25;11.10;;;;;;;20.64;62.92;92679.13;2054940;70;20150;-81
2023/09/12 06:40:08;;;;;;;15.63;11.77;;;;;;;20.60;64.75;92679.75;2054718;70;20636;-79
2023/09/12 06:42:34;;;;;;;15.05;10.88;;;;;;;20.33;63.98;92686.94;2054713;70;20153;-81
2023/09/12 06:45:02;;;;;;;14.88;10.93;;;;;;;20.54;64.28;92686.06;2051784;70;20142;-81
2023/09/12 06:47:28;;;;;;;14.57;11.00;;;;;;;20.61;62.67;92686.91;2054608;70;20141;-78
2023/09/12 06:49:57;;;;;;;15.63;11.52;;;;;;;20.52;62.21;92686.00;2054723;70;20142;-80
2023/09/12 06:52:23;;;;;;;13.40;11.07;;;;;;;20.72;63.06;92687.88;2054857;70;20224;-82
2023/09/12 06:54:48;;;;;;;16.85;10.50;;;;;;;20.96;61.39;92685.56;2054834;70;20308;-81
2023/09/12 06:57:14;;;;;;;14.10;10.90;;;;;;;21.10;61.23;92690.16;2051447;70;20529;-81
2023/09/12 06:59:39;;;;;;;15.10;10.65;;;;;;;21.31;62.88;92689.94;2054776;70;20145;-80
2023/09/12 07:02:05;;;;;;;15.50;10.90;;;;;;;21.41;61.67;92688.69;2051456;70;20142;-81
2023/09/12 07:04:30;;;;;;;16.05;11.82;;;;;;;21.45;60.44;92686.63;2054775;70;20626;-79
2023/09/12 07:06:57;;;;;;;15.77;11.20;;;;;;;21.48;61.63;92687.38;2054770;69;20238;-79
2023/09/12 07:09:23;;;;;;;15.45;11.00;;;;;;;21.83;59.95;92692.38;2054961;70;20177;-80
2023/09/12 07:11:49;;;;;;;18.50;10.90;;;;;;;22.01;59.54;92689.13;2054708;70;20146;-79
2023/09/12 07:14:15;;;;;;;14.73;11.55;;;;;;;21.93;59.20;92686.09;2054621;70;20216;-79
2023/09/12 07:16:40;;;;;;;14.70;11.02;;;;;;;21.91;58.57;92693.94;2051419;70;20169;-80
2023/09/12 07:19:07;;;;;;;16.50;11.25;;;;;;;22.19;57.17;92696.63;2054646;70;20165;-80
2023/09/12 07:21:34;;;;;;;14.77;10.48;;;;;;;22.57;56.75;92699.41;2051375;70;20199;-80
2023/09/12 07:24:00;;;;;;;14.23;10.35;;;;;;;22.93;56.03;92705.03;2054920;70;20200;-80
2023/09/12 07:26:27;;;;;;;14.13;10.98;;;;;;;23.27;55.73;92704.78;2054916;70;20158;-80
2023/09/12 07:28:52;;;;;;;16.42;10.40;;;;;;;23.59;54.37;92695.13;2054984;70;20162;-81
2023/09/12 07:31:18;;;;;;;17.70;10.98;;;;;;;23.59;53.84;92686.50;2054803;70;20517;-80
2023/09/12 07:33:44;;;;;;;13.10;10.25;;;;;;;24.06;54.59;92704.34;2054541;70;20593;-81
2023/09/12 07:36:12;;;;;;;16.25;10.50;;;;;;;24.00;55.32;92704.25;2054965;70;20150;-78
2023/09/12 07:38:38;;;;;;;15.32;10.68;;;;;;;24.39;52.95;92701.81;2054763;70;20149;-80
2023/09/12 07:41:03;;;;;;;16.50;10.27;;;;;;;24.52;52.32;92698.34;2054706;70;20142;-78
2023/09/12 07:43:30;;;;;;;15.85;10.27;;;;;;;24.80;51.54;92705.75;2054774;70;20138;-79
2023/09/12 07:45:57;;;;;;;15.27;10.30;;;;;;;24.52;52.63;92703.38;2054681;70;20602;-79
2023/09/12 07:48:23;;;;;;;13.30;10.60;;;;;;;24.75;52.15;92704.28;2054527;70;20590;-79
2023/09/12 07:50:48;;;;;;;13.93;10.30;;;;;;;24.56;51.66;92694.78;2054843;70;20205;-78
2023/09/12 07:53:15;;;;;;;14.82;11.02;;;;;;;25.12;51.88;92705.28;2054703;70;20200;-80
2023/09/12 07:55:45;;;;;;;14.68;10.40;;;;;;;25.34;50.59;92711.19;2054608;70;20174;-84
2023/09/12 07:58:20;;;;;;;15.68;10.23;;;;;;;25.16;49.54;92693.06;2054703;69;20264;-80
2023/09/12 08:00:46;;;;;;;14.60;10.50;;;;;;;24.96;52.04;92711.63;2051557;70;20142;-83
2023/09/12 08:03:11;;;;;;;16.95;10.55;;;;;;;25.53;51.65;92711.28;2054450;70;20681;-85
2023/09/12 08:05:38;;;;;;;13.02;10.25;;;;;;;25.35;50.86;92717.66;2054688;70;20150;-80
2023/09/12 08:08:04;;;;;;;17.73;10.05;;;;;;;25.59;50.88;92714.91;2054634;70;20146;-80
2023/09/12 08:10:30;;;;;;;16.50;10.20;;;;;;;25.55;50.45;92714.88;2054573;70;20153;-76
2023/09/12 08:12:56;;;;;;;14.18;10.10;;;;;;;24.98;50.76;92716.69;2054818;70;20225;-80
2023/09/12 08:15:22;;;;;;;15.35;9.40;;;;;;;25.24;50.93;92713.28;2054713;70;20574;-81
2023/09/12 08:17:51;;;;;;;13.82;10.23;;;;;;;25.67;51.08;92713.53;2054418;70;20610;-80
2023/09/12 08:20:21;;;;;;;13.25;9.57;;;;;;;26.17;50.65;92715.16;2051553;70;20142;-82
2023/09/12 08:22:47;;;;;;;10.98;9.25;;;;;;;26.43;50.17;92709.47;2051690;70;20581;-81
2023/09/12 08:25:14;;;;;;;13.00;9.88;;;;;;;26.73;48.82;92716.72;2053526;70;20598;-79
2023/09/12 08:27:40;;;;;;;13.18;9.70;;;;;;;26.46;48.03;92707.31;2055284;70;20647;-83
2023/09/12 08:30:06;;;;;;;12.98;9.57;;;;;;;26.73;46.89;92697.25;2054643;70;20138;-87
2023/09/12 08:32:32;;;;;;;12.30;9.60;;;;;;;27.07;46.21;92699.38;2054637;70;20157;-81
2023/09/12 08:34:59;;;;;;;15.75;10.43;;;;;;;26.45;47.56;92697.22;2055055;70;20138;-84
2023/09/12 08:37:24;;;;;;;14.52;10.07;;;;;;;26.68;46.07;92698.69;2054831;70;20146;-82
2023/09/12 08:39:52;;;;;;;14.70;9.63;;;;;;;27.05;46.52;92695.78;2054761;70;20208;-85
2023/09/12 08:42:19;;;;;;;12.63;10.20;;;;;;;26.79;47.09;92703.00;2054824;70;20140;-82
2023/09/12 08:44:46;;;;;;;14.18;9.32;;;;;;;27.24;45.38;92703.00;2053891;70;20146;-83
2023/09/12 08:47:15;;;;;;;14.07;9.70;;;;;;;27.33;45.50;92698.66;2052154;70;20140;-83
2023/09/12 08:49:42;;;;;;;11.95;9.27;;;;;;;27.26;44.05;92696.50;2052595;70;20170;-79
2023/09/12 08:52:08;;;;;;;14.32;9.40;;;;;;;27.54;44.42;92701.50;2051901;70;20150;-80
2023/09/12 08:54:35;;;;;;;11.10;9.57;;;;;;;27.63;44.63;92700.03;2051813;70;20143;-80
2023/09/12 08:57:03;;;;;;;13.07;9.82;;;;;;;27.76;44.20;92689.16;2048579;70;20174;-82
2023/09/12 08:59:33;;;;;;;13.65;10.18;;;;;;;28.27;43.37;92689.66;2051901;70;20603;-83
2023/09/12 09:02:00;;;;;;;16.08;9.63;;;;;;;28.57;42.78;92693.84;2051873;70;20225;-82
2023/09/12 09:04:30;;;;;;;16.10;9.70;;;;;;;28.28;42.66;92696.88;2051739;70;20617;-82
2023/09/12 09:06:59;;;;;;;15.40;9.25;;;;;;;28.75;42.40;92699.50;2051892;70;20158;-81
2023/09/12 09:09:30;;;;;;;15.77;10.20;;;;;;;28.82;41.28;92700.91;2051665;70;20543;-81
2023/09/12 09:11:58;;;;;;;13.80;10.32;;;;;;;28.56;42.12;92698.19;2051911;70;20185;-83
2023/09/12 09:14:28;;;;;;;14.30;10.57;;;;;;;28.27;42.39;92698.34;2048550;70;20158;-81
2023/09/12 09:16:54;;;;;;;12.77;9.85;;;;;;;28.53;42.81;92696.75;2048623;70;20504;-81
2023/09/12 09:19:20;;;;;;;14.23;10.05;;;;;;;28.98;40.71;92696.44;2051667;70;20157;-84
2023/09/12 09:21:46;;;;;;;12.70;10.43;;;;;;;29.19;40.96;92689.03;2051769;70;20138;-83
2023/09/12 09:24:17;;;;;;;13.35;10.40;;;;;;;29.41;40.50;92698.94;2045851;70;20550;-81
2023/09/12 09:26:58;;;;;;;13.60;10.18;;;;;;;29.53;40.64;92696.66;2051911;70;20146;-81
2023/09/12 09:29:24;;;;;;;13.15;10.75;;;;;;;29.54;41.45;92685.78;2051680;70;20530;-81
2023/09/12 09:31:51;;;;;;;15.80;10.32;;;;;;;29.33;41.93;92686.00;2048362;70;20145;-82
2023/09/12 09:34:21;;;;;;;11.25;9.45;;;;;;;29.93;41.23;92689.00;2048372;70;20594;-81
2023/09/12 09:36:50;;;;;;;12.82;9.90;;;;;;;30.11;40.29;92682.25;2052367;70;20170;-80
2023/09/12 09:39:18;;;;;;;15.30;10.00;;;;;;;30.28;39.96;92676.94;2057842;70;20158;-80
2023/09/12 09:41:55;;;;;;;16.10;10.38;;;;;;;30.50;39.65;92685.34;2058272;70;20106;-79
2023/09/12 09:44:23;;;;;;;13.45;10.25;;;;;;;30.44;39.29;92684.72;2058520;70;20194;-78
2023/09/12 09:47:00;;;;;;;16.33;10.07;;;;;;;29.87;39.90;92675.28;2057619;70;20181;-78
2023/09/12 09:49:26;;;;;;;11.63;9.68;;;;;;;30.41;39.60;92677.50;2060515;70;20141;-79
2023/09/12 09:51:54;;;;;;;11.15;9.95;;;;;;;30.78;39.17;92678.41;2056492;70;20156;-80
2023/09/12 09:54:25;;;;;;;13.68;9.98;;;;;;;30.12;38.66;92684.38;2056079;69;20146;-81
2023/09/12 09:56:55;;;;;;;11.65;9.52;;;;;;;31.25;38.40;92676.94;2055820;70;20157;-81
2023/09/12 09:59:22;;;;;;;14.10;9.98;;;;;;;31.48;37.19;92678.03;2055474;69;20314;-81
2023/09/12 10:01:59;;;;;;;11.65;9.50;;;;;;;31.95;37.33;92676.44;2052185;70;20154;-82
2023/09/12 10:04:30;;;;;;;13.75;8.77;;;;;;;32.37;37.71;92666.09;2055403;70;20142;-81
2023/09/12 10:07:02;;;;;;;11.57;9.35;;;;;;;33.09;36.71;92674.66;2055329;69;20142;-81
2023/09/12 10:09:31;;;;;;;11.32;9.60;;;;;;;32.88;35.76;92659.81;2055392;69;20150;-82
2023/09/12 10:11:58;;;;;;;12.48;9.43;;;;;;;32.95;36.01;92657.50;2049235;70;20150;-79
2023/09/12 10:14:27;;;;;;;10.32;9.20;;;;;;;33.22;36.13;92651.75;2055262;70;20185;-79
2023/09/12 10:17:00;;;;;;;12.82;9.45;;;;;;;33.56;35.19;92653.06;2055648;70;20149;-84
2023/09/12 10:19:31;;;;;;;13.93;9.13;;;;;;;33.89;34.15;92649.97;2055360;70;20533;-81
2023/09/12 10:22:07;;;;;;;12.10;9.68;;;;;;;32.78;34.93;92642.56;2055394;70;20142;-81
2023/09/12 10:24:36;;;;;;;13.20;9.75;;;;;;;31.80;37.50;92638.13;2052149;70;20137;-81
2023/09/12 10:27:05;;;;;;;10.38;9.20;;;;;;;30.99;37.40;92629.41;2057279;69;20138;-82
2023/09/12 10:29:31;;;;;;;12.70;9.05;;;;;;;31.48;37.62;92631.47;2052477;70;20233;-85
2023/09/12 10:31:58;;;;;;;10.80;9.38;;;;;;;31.67;37.95;92628.22;2055267;69;20157;-84
2023/09/12 10:34:31;;;;;;;15.20;10.43;;;;;;;31.52;39.20;92628.50;2055169;70;20241;-83
2023/09/12 10:37:04;;;;;;;12.52;9.40;;;;;;;31.96;37.70;92616.72;2055391;70;20157;-85
2023/09/12 10:39:32;;;;;;;15.52;9.93;;;;;;;32.27;38.41;92610.97;2055273;70;20165;-84
2023/09/12 10:41:59;;;;;;;12.85;9.68;;;;;;;34.07;35.36;92628.31;2055241;70;20134;-85
2023/09/12 10:44:25;;;;;;;14.10;9.40;;;;;;;35.51;31.88;92628.22;2051938;70;20158;-85
2023/09/12 10:46:53;;;;;;;10.57;8.82;;;;;;;36.99;30.79;92626.44;2051900;70;20197;-83
2023/09/12 10:49:19;;;;;;;11.43;9.48;;;;;;;36.66;30.22;92621.84;2055085;69;20200;-85
2023/09/12 10:51:47;;;;;;;10.60;9.50;;;;;;;38.15;29.18;92616.34;2055018;70;20142;-84
2023/09/12 10:54:24;;;;;;;10.43;8.48;;;;;;;38.33;28.05;92622.94;2055296;69;20146;-83
2023/09/12 10:57:06;;;;;;;12.50;8.55;;;;;;;38.70;28.93;92624.16;2055164;69;20633;-81
2023/09/12 10:59:37;;;;;;;8.95;8.05;;;;;;;40.46;27.65;92625.66;2055165;69;20161;-81
2023/09/12 11:02:34;;;;;;;8.95;7.78;;;;;;;42.24;25.85;92630.31;2055276;69;20614;-85
2023/09/12 11:05:03;;;;;;;10.35;7.60;;;;;;;41.51;24.56;92630.16;2055187;70;20153;-84
2023/09/12 11:07:43;;;;;;;9.75;7.20;;;;;;;42.31;24.43;92625.47;2050726;70;20153;-83
2023/09/12 11:10:15;;;;;;;12.05;7.18;;;;;;;42.82;24.21;92623.00;2051602;70;20143;-83
2023/09/12 11:12:42;;;;;;;8.60;6.88;;;;;;;43.48;22.83;92618.81;2051388;70;20236;-84
2023/09/12 11:15:13;;;;;;;10.20;6.90;;;;;;;44.22;23.37;92626.44;2051359;70;20570;-83
2023/09/12 11:18:15;;;;;;;6.75;5.97;;;;;;;44.53;22.32;92616.84;2051355;70;20141;-83
2023/09/12 11:20:53;;;;;;;11.80;6.00;;;;;;;46.41;22.01;92605.28;2034301;70;20175;-83